sensor_id;sensor_type;location;lat;lon;timestamp;P1;durP1;ratioP1;P2;durP2;ratioP2
76053;SDS011;64752;48.870;9.082;2023-09-30T00:00:41;6.03;;;2.20;;
76053;SDS011;64752;48.870;9.082;2023-09-30T00:03:07;5.32;;;2.35;;
76053;SDS011;64752;48.870;9.082;2023-09-30T00:05:32;4.53;;;2.28;;
76053;SDS011;64752;48.870;9.082;2023-09-30T00:07:58;5.13;;;2.00;;
76053;SDS011;64752;48.870;9.082;2023-09-30T00:10:23;3.97;;;2.03;;
76053;SDS011;64752;48.870;9.082;2023-09-30T00:12:48;4.38;;;2.45;;
76053;SDS011;64752;48.870;9.082;2023-09-30T00:15:14;6.70;;;2.47;;
76053;SDS011;64752;48.870;9.082;2023-09-30T00:17:39;5.25;;;2.47;;
76053;SDS011;64752;48.870;9.082;2023-09-30T00:20:04;5.22;;;2.33;;
76053;SDS011;64752;48.870;9.082;2023-09-30T00:22:30;5.17;;;2.50;;
76053;SDS011;64752;48.870;9.082;2023-09-30T00:24:56;7.55;;;2.70;;
76053;SDS011;64752;48.870;9.082;2023-09-30T00:27:21;6.60;;;2.90;;
76053;SDS011;64752;48.870;9.082;2023-09-30T00:29:47;5.22;;;2.33;;
76053;SDS011;64752;48.870;9.082;2023-09-30T00:32:12;4.13;;;2.47;;
76053;SDS011;64752;48.870;9.082;2023-09-30T00:34:37;7.43;;;2.65;;
76053;SDS011;64752;48.870;9.082;2023-09-30T00:37:03;5.75;;;2.03;;
76053;SDS011;64752;48.870;9.082;2023-09-30T00:39:28;7.72;;;3.10;;
76053;SDS011;64752;48.870;9.082;2023-09-30T00:41:57;4.57;;;2.40;;
76053;SDS011;64752;48.870;9.082;2023-09-30T00:44:26;5.18;;;2.50;;
76053;SDS011;64752;48.870;9.082;2023-09-30T00:46:52;4.10;;;2.40;;
76053;SDS011;64752;48.870;9.082;2023-09-30T00:49:20;6.82;;;2.90;;
76053;SDS011;64752;48.870;9.082;2023-09-30T00:51:47;7.55;;;2.95;;
76053;SDS011;64752;48.870;9.082;2023-09-30T00:54:14;10.30;;;3.28;;
76053;SDS011;64752;48.870;9.082;2023-09-30T00:56:43;5.20;;;2.75;;
76053;SDS011;64752;48.870;9.082;2023-09-30T00:59:10;5.97;;;3.05;;
76053;SDS011;64752;48.870;9.082;2023-09-30T01:04:03;5.40;;;3.08;;
76053;SDS011;64752;48.870;9.082;2023-09-30T01:06:28;7.90;;;3.63;;
76053;SDS011;64752;48.870;9.082;2023-09-30T01:08:54;8.80;;;3.78;;
76053;SDS011;64752;48.870;9.082;2023-09-30T01:11:20;9.38;;;4.05;;
76053;SDS011;64752;48.870;9.082;2023-09-30T01:13:46;7.35;;;4.38;;
76053;SDS011;64752;48.870;9.082;2023-09-30T01:16:12;6.88;;;4.05;;
76053;SDS011;64752;48.870;9.082;2023-09-30T01:18:38;11.80;;;4.90;;
76053;SDS011;64752;48.870;9.082;2023-09-30T01:21:07;10.52;;;5.03;;
76053;SDS011;64752;48.870;9.082;2023-09-30T01:23:34;11.07;;;5.10;;
76053;SDS011;64752;48.870;9.082;2023-09-30T01:26:03;10.02;;;5.28;;
76053;SDS011;64752;48.870;9.082;2023-09-30T01:28:34;10.27;;;4.88;;
76053;SDS011;64752;48.870;9.082;2023-09-30T01:31:00;9.20;;;4.82;;
76053;SDS011;64752;48.870;9.082;2023-09-30T01:33:26;12.95;;;4.55;;
76053;SDS011;64752;48.870;9.082;2023-09-30T01:35:51;9.82;;;5.13;;
76053;SDS011;64752;48.870;9.082;2023-09-30T01:38:17;10.60;;;5.47;;
76053;SDS011;64752;48.870;9.082;2023-09-30T01:40:43;7.63;;;4.80;;
76053;SDS011;64752;48.870;9.082;2023-09-30T01:43:08;9.80;;;4.80;;
76053;SDS011;64752;48.870;9.082;2023-09-30T01:45:34;7.20;;;4.15;;
76053;SDS011;64752;48.870;9.082;2023-09-30T01:48:00;8.43;;;4.53;;
76053;SDS011;64752;48.870;9.082;2023-09-30T01:50:27;9.13;;;4.78;;
76053;SDS011;64752;48.870;9.082;2023-09-30T01:52:53;6.18;;;3.90;;
76053;SDS011;64752;48.870;9.082;2023-09-30T01:55:18;7.25;;;3.97;;
76053;SDS011;64752;48.870;9.082;2023-09-30T01:57:43;6.95;;;4.25;;
76053;SDS011;64752;48.870;9.082;2023-09-30T02:00:09;8.60;;;3.92;;
76053;SDS011;64752;48.870;9.082;2023-09-30T02:02:34;8.95;;;4.18;;
76053;SDS011;64752;48.870;9.082;2023-09-30T02:05:01;9.48;;;4.90;;
76053;SDS011;64752;48.870;9.082;2023-09-30T02:07:27;10.87;;;5.00;;
76053;SDS011;64752;48.870;9.082;2023-09-30T02:09:54;8.43;;;4.47;;
76053;SDS011;64752;48.870;9.082;2023-09-30T02:12:19;9.93;;;5.05;;
76053;SDS011;64752;48.870;9.082;2023-09-30T02:14:44;10.13;;;4.97;;
76053;SDS011;64752;48.870;9.082;2023-09-30T02:17:11;9.52;;;4.95;;
76053;SDS011;64752;48.870;9.082;2023-09-30T02:19:36;9.52;;;5.32;;
76053;SDS011;64752;48.870;9.082;2023-09-30T02:22:02;9.57;;;4.85;;
76053;SDS011;64752;48.870;9.082;2023-09-30T02:24:27;9.68;;;4.68;;
76053;SDS011;64752;48.870;9.082;2023-09-30T02:26:52;11.40;;;4.95;;
76053;SDS011;64752;48.870;9.082;2023-09-30T02:29:18;9.32;;;5.35;;
76053;SDS011;64752;48.870;9.082;2023-09-30T02:31:43;8.57;;;4.72;;
76053;SDS011;64752;48.870;9.082;2023-09-30T02:34:08;11.52;;;5.95;;
76053;SDS011;64752;48.870;9.082;2023-09-30T02:36:34;11.70;;;5.45;;
76053;SDS011;64752;48.870;9.082;2023-09-30T02:39:05;12.13;;;5.65;;
76053;SDS011;64752;48.870;9.082;2023-09-30T02:41:30;9.27;;;4.80;;
76053;SDS011;64752;48.870;9.082;2023-09-30T02:43:56;10.43;;;4.90;;
76053;SDS011;64752;48.870;9.082;2023-09-30T02:46:21;9.13;;;4.93;;
76053;SDS011;64752;48.870;9.082;2023-09-30T02:48:46;10.05;;;5.10;;
76053;SDS011;64752;48.870;9.082;2023-09-30T02:51:12;9.75;;;4.78;;
76053;SDS011;64752;48.870;9.082;2023-09-30T02:53:37;9.57;;;5.00;;
76053;SDS011;64752;48.870;9.082;2023-09-30T02:56:03;13.00;;;4.90;;
76053;SDS011;64752;48.870;9.082;2023-09-30T02:58:29;9.98;;;4.25;;
76053;SDS011;64752;48.870;9.082;2023-09-30T03:00:55;10.55;;;4.75;;
76053;SDS011;64752;48.870;9.082;2023-09-30T03:03:21;9.07;;;4.25;;
76053;SDS011;64752;48.870;9.082;2023-09-30T03:05:47;9.90;;;4.57;;
76053;SDS011;64752;48.870;9.082;2023-09-30T03:08:15;10.45;;;4.65;;
76053;SDS011;64752;48.870;9.082;2023-09-30T03:10:40;8.93;;;4.72;;
76053;SDS011;64752;48.870;9.082;2023-09-30T03:13:06;9.85;;;5.10;;
76053;SDS011;64752;48.870;9.082;2023-09-30T03:15:33;7.18;;;4.47;;
76053;SDS011;64752;48.870;9.082;2023-09-30T03:17:58;9.45;;;4.95;;
76053;SDS011;64752;48.870;9.082;2023-09-30T03:20:24;8.80;;;5.45;;
76053;SDS011;64752;48.870;9.082;2023-09-30T03:22:50;9.45;;;4.70;;
76053;SDS011;64752;48.870;9.082;2023-09-30T03:25:17;10.13;;;4.93;;
76053;SDS011;64752;48.870;9.082;2023-09-30T03:27:44;9.25;;;4.47;;
76053;SDS011;64752;48.870;9.082;2023-09-30T03:30:13;9.07;;;4.72;;
76053;SDS011;64752;48.870;9.082;2023-09-30T03:32:40;6.38;;;4.13;;
76053;SDS011;64752;48.870;9.082;2023-09-30T03:35:07;11.18;;;5.00;;
76053;SDS011;64752;48.870;9.082;2023-09-30T03:37:44;13.25;;;5.68;;
76053;SDS011;64752;48.870;9.082;2023-09-30T03:40:10;13.80;;;5.75;;
76053;SDS011;64752;48.870;9.082;2023-09-30T03:42:42;10.60;;;5.18;;
76053;SDS011;64752;48.870;9.082;2023-09-30T03:45:08;9.88;;;4.97;;
76053;SDS011;64752;48.870;9.082;2023-09-30T03:47:35;9.75;;;5.78;;
76053;SDS011;64752;48.870;9.082;2023-09-30T03:50:02;9.70;;;4.65;;
76053;SDS011;64752;48.870;9.082;2023-09-30T03:52:28;12.70;;;4.88;;
76053;SDS011;64752;48.870;9.082;2023-09-30T03:54:54;8.48;;;4.72;;
76053;SDS011;64752;48.870;9.082;2023-09-30T03:57:19;10.07;;;4.78;;
76053;SDS011;64752;48.870;9.082;2023-09-30T03:59:45;13.32;;;5.00;;
76053;SDS011;64752;48.870;9.082;2023-09-30T04:02:11;9.67;;;5.00;;
76053;SDS011;64752;48.870;9.082;2023-09-30T04:04:37;10.70;;;4.68;;
76053;SDS011;64752;48.870;9.082;2023-09-30T04:07:02;8.90;;;4.72;;
76053;SDS011;64752;48.870;9.082;2023-09-30T04:09:30;10.38;;;4.75;;
76053;SDS011;64752;48.870;9.082;2023-09-30T04:11:57;10.65;;;4.88;;
76053;SDS011;64752;48.870;9.082;2023-09-30T04:14:22;11.00;;;4.70;;
76053;SDS011;64752;48.870;9.082;2023-09-30T04:16:47;11.15;;;4.95;;
76053;SDS011;64752;48.870;9.082;2023-09-30T04:19:13;10.05;;;5.10;;
76053;SDS011;64752;48.870;9.082;2023-09-30T04:21:39;9.15;;;4.82;;
76053;SDS011;64752;48.870;9.082;2023-09-30T04:24:04;13.65;;;5.40;;
76053;SDS011;64752;48.870;9.082;2023-09-30T04:26:32;9.85;;;5.00;;
76053;SDS011;64752;48.870;9.082;2023-09-30T04:28:57;9.25;;;4.70;;
76053;SDS011;64752;48.870;9.082;2023-09-30T04:31:22;10.82;;;5.00;;
76053;SDS011;64752;48.870;9.082;2023-09-30T04:33:49;9.95;;;5.03;;
76053;SDS011;64752;48.870;9.082;2023-09-30T04:36:16;10.05;;;4.93;;
76053;SDS011;64752;48.870;9.082;2023-09-30T04:38:41;8.30;;;4.50;;
76053;SDS011;64752;48.870;9.082;2023-09-30T04:41:08;11.23;;;5.50;;
76053;SDS011;64752;48.870;9.082;2023-09-30T04:43:34;11.07;;;5.43;;
76053;SDS011;64752;48.870;9.082;2023-09-30T04:46:00;8.53;;;5.07;;
76053;SDS011;64752;48.870;9.082;2023-09-30T04:48:26;8.43;;;4.53;;
76053;SDS011;64752;48.870;9.082;2023-09-30T04:50:51;11.18;;;4.97;;
76053;SDS011;64752;48.870;9.082;2023-09-30T04:53:17;12.75;;;5.55;;
76053;SDS011;64752;48.870;9.082;2023-09-30T04:55:44;11.70;;;5.27;;
76053;SDS011;64752;48.870;9.082;2023-09-30T04:58:09;10.48;;;5.13;;
76053;SDS011;64752;48.870;9.082;2023-09-30T05:00:35;10.40;;;5.70;;
76053;SDS011;64752;48.870;9.082;2023-09-30T05:03:01;8.50;;;5.00;;
76053;SDS011;64752;48.870;9.082;2023-09-30T05:05:27;10.43;;;4.65;;
76053;SDS011;64752;48.870;9.082;2023-09-30T05:07:53;8.80;;;5.50;;
76053;SDS011;64752;48.870;9.082;2023-09-30T05:10:19;11.35;;;5.30;;
76053;SDS011;64752;48.870;9.082;2023-09-30T05:12:44;10.32;;;5.10;;
76053;SDS011;64752;48.870;9.082;2023-09-30T05:15:13;9.85;;;5.43;;
76053;SDS011;64752;48.870;9.082;2023-09-30T05:17:44;11.05;;;5.22;;
76053;SDS011;64752;48.870;9.082;2023-09-30T05:20:10;10.32;;;5.45;;
76053;SDS011;64752;48.870;9.082;2023-09-30T05:22:37;15.20;;;5.70;;
76053;SDS011;64752;48.870;9.082;2023-09-30T05:25:05;10.38;;;5.57;;
76053;SDS011;64752;48.870;9.082;2023-09-30T05:27:31;10.60;;;5.88;;
76053;SDS011;64752;48.870;9.082;2023-09-30T05:29:57;12.13;;;5.82;;
76053;SDS011;64752;48.870;9.082;2023-09-30T05:32:22;11.45;;;6.15;;
76053;SDS011;64752;48.870;9.082;2023-09-30T05:34:48;11.85;;;6.38;;
76053;SDS011;64752;48.870;9.082;2023-09-30T05:37:13;13.00;;;6.95;;
76053;SDS011;64752;48.870;9.082;2023-09-30T05:39:39;15.00;;;6.80;;
76053;SDS011;64752;48.870;9.082;2023-09-30T05:42:05;11.77;;;6.63;;
76053;SDS011;64752;48.870;9.082;2023-09-30T05:44:31;15.88;;;7.07;;
76053;SDS011;64752;48.870;9.082;2023-09-30T05:46:57;9.80;;;6.43;;
76053;SDS011;64752;48.870;9.082;2023-09-30T05:49:24;10.45;;;7.47;;
76053;SDS011;64752;48.870;9.082;2023-09-30T05:51:50;14.35;;;7.25;;
76053;SDS011;64752;48.870;9.082;2023-09-30T05:54:16;11.93;;;5.80;;
76053;SDS011;64752;48.870;9.082;2023-09-30T05:56:41;13.95;;;6.25;;
76053;SDS011;64752;48.870;9.082;2023-09-30T05:59:08;10.73;;;5.88;;
76053;SDS011;64752;48.870;9.082;2023-09-30T06:01:34;14.00;;;5.93;;
76053;SDS011;64752;48.870;9.082;2023-09-30T06:04:01;11.68;;;6.07;;
76053;SDS011;64752;48.870;9.082;2023-09-30T06:06:27;11.97;;;5.80;;
76053;SDS011;64752;48.870;9.082;2023-09-30T06:08:56;10.15;;;5.47;;
76053;SDS011;64752;48.870;9.082;2023-09-30T06:11:25;13.35;;;6.03;;
76053;SDS011;64752;48.870;9.082;2023-09-30T06:13:56;11.95;;;5.35;;
76053;SDS011;64752;48.870;9.082;2023-09-30T06:16:26;11.70;;;5.60;;
76053;SDS011;64752;48.870;9.082;2023-09-30T06:18:52;9.90;;;5.57;;
76053;SDS011;64752;48.870;9.082;2023-09-30T06:21:20;9.70;;;5.10;;
76053;SDS011;64752;48.870;9.082;2023-09-30T06:23:47;9.63;;;5.10;;
76053;SDS011;64752;48.870;9.082;2023-09-30T06:28:40;10.93;;;4.82;;
76053;SDS011;64752;48.870;9.082;2023-09-30T06:31:09;8.48;;;5.00;;
76053;SDS011;64752;48.870;9.082;2023-09-30T06:33:35;9.98;;;4.97;;
76053;SDS011;64752;48.870;9.082;2023-09-30T06:36:07;8.95;;;5.07;;
76053;SDS011;64752;48.870;9.082;2023-09-30T06:38:33;8.30;;;4.72;;
76053;SDS011;64752;48.870;9.082;2023-09-30T06:40:58;12.45;;;4.72;;
76053;SDS011;64752;48.870;9.082;2023-09-30T06:43:25;7.43;;;4.47;;
76053;SDS011;64752;48.870;9.082;2023-09-30T06:45:50;8.37;;;4.60;;
76053;SDS011;64752;48.870;9.082;2023-09-30T06:48:16;8.55;;;4.30;;
76053;SDS011;64752;48.870;9.082;2023-09-30T06:50:46;12.30;;;4.63;;
76053;SDS011;64752;48.870;9.082;2023-09-30T06:53:14;8.38;;;3.80;;
76053;SDS011;64752;48.870;9.082;2023-09-30T06:55:41;10.88;;;4.95;;
76053;SDS011;64752;48.870;9.082;2023-09-30T06:58:08;12.50;;;4.05;;
76053;SDS011;64752;48.870;9.082;2023-09-30T07:00:33;10.32;;;4.50;;
76053;SDS011;64752;48.870;9.082;2023-09-30T07:03:00;12.65;;;3.88;;
76053;SDS011;64752;48.870;9.082;2023-09-30T07:05:26;7.40;;;3.67;;
76053;SDS011;64752;48.870;9.082;2023-09-30T07:07:53;8.98;;;4.13;;
76053;SDS011;64752;48.870;9.082;2023-09-30T07:10:21;9.52;;;3.97;;
76053;SDS011;64752;48.870;9.082;2023-09-30T07:12:47;8.27;;;3.40;;
76053;SDS011;64752;48.870;9.082;2023-09-30T07:15:12;7.60;;;3.73;;
76053;SDS011;64752;48.870;9.082;2023-09-30T07:17:39;14.77;;;4.70;;
76053;SDS011;64752;48.870;9.082;2023-09-30T07:20:05;7.57;;;3.17;;
76053;SDS011;64752;48.870;9.082;2023-09-30T07:22:32;7.57;;;4.07;;
76053;SDS011;64752;48.870;9.082;2023-09-30T07:24:58;11.40;;;3.83;;
76053;SDS011;64752;48.870;9.082;2023-09-30T07:27:24;8.80;;;4.07;;
76053;SDS011;64752;48.870;9.082;2023-09-30T07:32:16;11.33;;;3.97;;
76053;SDS011;64752;48.870;9.082;2023-09-30T07:34:42;9.77;;;4.00;;
76053;SDS011;64752;48.870;9.082;2023-09-30T07:37:07;8.43;;;3.50;;
76053;SDS011;64752;48.870;9.082;2023-09-30T07:39:33;6.27;;;3.30;;
76053;SDS011;64752;48.870;9.082;2023-09-30T07:41:59;7.28;;;2.78;;
76053;SDS011;64752;48.870;9.082;2023-09-30T07:44:25;8.65;;;3.53;;
76053;SDS011;64752;48.870;9.082;2023-09-30T07:46:51;8.33;;;3.70;;
76053;SDS011;64752;48.870;9.082;2023-09-30T07:49:17;7.47;;;3.57;;
76053;SDS011;64752;48.870;9.082;2023-09-30T07:51:42;10.60;;;3.23;;
76053;SDS011;64752;48.870;9.082;2023-09-30T07:54:08;9.07;;;2.93;;
76053;SDS011;64752;48.870;9.082;2023-09-30T07:56:33;8.70;;;3.40;;
76053;SDS011;64752;48.870;9.082;2023-09-30T07:58:59;7.65;;;3.40;;
76053;SDS011;64752;48.870;9.082;2023-09-30T08:01:24;9.43;;;3.10;;
76053;SDS011;64752;48.870;9.082;2023-09-30T08:03:50;7.90;;;3.47;;
76053;SDS011;64752;48.870;9.082;2023-09-30T08:06:15;10.67;;;3.93;;
76053;SDS011;64752;48.870;9.082;2023-09-30T08:08:40;7.27;;;3.03;;
76053;SDS011;64752;48.870;9.082;2023-09-30T08:11:06;11.93;;;3.50;;
76053;SDS011;64752;48.870;9.082;2023-09-30T08:13:34;9.50;;;3.27;;
76053;SDS011;64752;48.870;9.082;2023-09-30T08:16:00;6.75;;;3.08;;
76053;SDS011;64752;48.870;9.082;2023-09-30T08:18:25;6.57;;;2.80;;
76053;SDS011;64752;48.870;9.082;2023-09-30T08:20:51;5.95;;;2.70;;
76053;SDS011;64752;48.870;9.082;2023-09-30T08:23:17;8.33;;;2.77;;
76053;SDS011;64752;48.870;9.082;2023-09-30T08:25:42;8.90;;;3.43;;
76053;SDS011;64752;48.870;9.082;2023-09-30T08:28:08;8.95;;;3.30;;
76053;SDS011;64752;48.870;9.082;2023-09-30T08:30:34;8.02;;;3.33;;
76053;SDS011;64752;48.870;9.082;2023-09-30T08:33:03;9.85;;;3.53;;
76053;SDS011;64752;48.870;9.082;2023-09-30T08:35:29;7.65;;;3.22;;
76053;SDS011;64752;48.870;9.082;2023-09-30T08:37:56;6.95;;;3.03;;
76053;SDS011;64752;48.870;9.082;2023-09-30T08:40:23;9.93;;;3.97;;
76053;SDS011;64752;48.870;9.082;2023-09-30T08:42:50;8.80;;;3.53;;
76053;SDS011;64752;48.870;9.082;2023-09-30T08:45:17;11.82;;;3.45;;
76053;SDS011;64752;48.870;9.082;2023-09-30T08:50:09;8.57;;;3.00;;
76053;SDS011;64752;48.870;9.082;2023-09-30T08:52:36;8.32;;;2.97;;
76053;SDS011;64752;48.870;9.082;2023-09-30T08:55:03;9.45;;;3.35;;
76053;SDS011;64752;48.870;9.082;2023-09-30T08:57:29;9.07;;;3.38;;
76053;SDS011;64752;48.870;9.082;2023-09-30T08:59:55;6.85;;;2.95;;
76053;SDS011;64752;48.870;9.082;2023-09-30T09:02:21;7.25;;;3.13;;
76053;SDS011;64752;48.870;9.082;2023-09-30T09:04:46;7.78;;;3.42;;
76053;SDS011;64752;48.870;9.082;2023-09-30T09:07:12;7.50;;;3.15;;
76053;SDS011;64752;48.870;9.082;2023-09-30T09:09:38;8.60;;;3.13;;
76053;SDS011;64752;48.870;9.082;2023-09-30T09:12:03;8.80;;;3.28;;
76053;SDS011;64752;48.870;9.082;2023-09-30T09:17:05;7.40;;;3.80;;
76053;SDS011;64752;48.870;9.082;2023-09-30T09:19:32;8.43;;;3.50;;
76053;SDS011;64752;48.870;9.082;2023-09-30T09:22:01;9.88;;;3.58;;
76053;SDS011;64752;48.870;9.082;2023-09-30T09:29:34;8.40;;;3.67;;
76053;SDS011;64752;48.870;9.082;2023-09-30T09:34:41;7.57;;;3.00;;
76053;SDS011;64752;48.870;9.082;2023-09-30T09:37:15;8.07;;;3.20;;
76053;SDS011;64752;48.870;9.082;2023-09-30T09:39:48;8.95;;;3.17;;
76053;SDS011;64752;48.870;9.082;2023-09-30T09:42:22;8.73;;;3.67;;
76053;SDS011;64752;48.870;9.082;2023-09-30T09:44:49;8.05;;;3.67;;
76053;SDS011;64752;48.870;9.082;2023-09-30T09:47:17;7.75;;;3.22;;
76053;SDS011;64752;48.870;9.082;2023-09-30T09:49:45;8.60;;;3.20;;
76053;SDS011;64752;48.870;9.082;2023-09-30T09:52:11;7.53;;;3.15;;
76053;SDS011;64752;48.870;9.082;2023-09-30T09:54:36;9.40;;;3.60;;
76053;SDS011;64752;48.870;9.082;2023-09-30T09:57:03;7.18;;;3.35;;
76053;SDS011;64752;48.870;9.082;2023-09-30T09:59:31;7.28;;;3.28;;
76053;SDS011;64752;48.870;9.082;2023-09-30T10:01:57;7.53;;;3.15;;
76053;SDS011;64752;48.870;9.082;2023-09-30T10:04:24;8.18;;;2.80;;
76053;SDS011;64752;48.870;9.082;2023-09-30T10:06:50;8.33;;;3.77;;
76053;SDS011;64752;48.870;9.082;2023-09-30T10:09:18;6.68;;;3.53;;
76053;SDS011;64752;48.870;9.082;2023-09-30T10:11:45;8.13;;;3.15;;
76053;SDS011;64752;48.870;9.082;2023-09-30T10:14:10;7.82;;;3.67;;
76053;SDS011;64752;48.870;9.082;2023-09-30T10:16:55;6.57;;;3.00;;
76053;SDS011;64752;48.870;9.082;2023-09-30T10:24:41;6.88;;;3.08;;
76053;SDS011;64752;48.870;9.082;2023-09-30T10:29:57;9.02;;;3.47;;
76053;SDS011;64752;48.870;9.082;2023-09-30T10:32:26;7.18;;;3.55;;
76053;SDS011;64752;48.870;9.082;2023-09-30T10:40:47;7.82;;;3.35;;
76053;SDS011;64752;48.870;9.082;2023-09-30T10:45:58;7.88;;;3.15;;
76053;SDS011;64752;48.870;9.082;2023-09-30T10:51:00;8.00;;;3.90;;
76053;SDS011;64752;48.870;9.082;2023-09-30T10:53:39;6.25;;;3.33;;
76053;SDS011;64752;48.870;9.082;2023-09-30T10:56:10;8.05;;;4.13;;
76053;SDS011;64752;48.870;9.082;2023-09-30T11:01:05;9.63;;;4.18;;
76053;SDS011;64752;48.870;9.082;2023-09-30T11:03:30;9.10;;;4.00;;
76053;SDS011;64752;48.870;9.082;2023-09-30T11:05:55;7.27;;;3.17;;
76053;SDS011;64752;48.870;9.082;2023-09-30T11:08:21;9.20;;;3.87;;
76053;SDS011;64752;48.870;9.082;2023-09-30T11:10:50;7.55;;;3.92;;
76053;SDS011;64752;48.870;9.082;2023-09-30T11:13:19;7.00;;;3.80;;
76053;SDS011;64752;48.870;9.082;2023-09-30T11:15:45;9.60;;;4.68;;
76053;SDS011;64752;48.870;9.082;2023-09-30T11:18:17;10.80;;;4.60;;
76053;SDS011;64752;48.870;9.082;2023-09-30T11:20:43;7.70;;;4.30;;
76053;SDS011;64752;48.870;9.082;2023-09-30T11:25:36;8.93;;;4.13;;
76053;SDS011;64752;48.870;9.082;2023-09-30T11:28:15;9.40;;;4.15;;
76053;SDS011;64752;48.870;9.082;2023-09-30T11:30:59;7.22;;;4.10;;
76053;SDS011;64752;48.870;9.082;2023-09-30T11:38:23;8.45;;;3.95;;
76053;SDS011;64752;48.870;9.082;2023-09-30T11:41:00;7.93;;;3.75;;
76053;SDS011;64752;48.870;9.082;2023-09-30T11:43:30;8.88;;;3.83;;
76053;SDS011;64752;48.870;9.082;2023-09-30T11:46:09;7.10;;;3.72;;
76053;SDS011;64752;48.870;9.082;2023-09-30T11:48:55;7.40;;;4.43;;
76053;SDS011;64752;48.870;9.082;2023-09-30T11:51:23;8.45;;;4.30;;
76053;SDS011;64752;48.870;9.082;2023-09-30T11:53:49;7.95;;;4.97;;
76053;SDS011;64752;48.870;9.082;2023-09-30T11:56:22;10.02;;;4.53;;
76053;SDS011;64752;48.870;9.082;2023-09-30T11:58:53;9.35;;;5.05;;
76053;SDS011;64752;48.870;9.082;2023-09-30T12:01:19;8.65;;;4.95;;
76053;SDS011;64752;48.870;9.082;2023-09-30T12:03:47;9.50;;;4.82;;
76053;SDS011;64752;48.870;9.082;2023-09-30T12:06:12;9.23;;;5.00;;
76053;SDS011;64752;48.870;9.082;2023-09-30T12:08:39;9.32;;;4.95;;
76053;SDS011;64752;48.870;9.082;2023-09-30T12:13:30;9.43;;;5.13;;
76053;SDS011;64752;48.870;9.082;2023-09-30T12:15:56;7.80;;;5.13;;
76053;SDS011;64752;48.870;9.082;2023-09-30T12:18:22;8.18;;;4.28;;
76053;SDS011;64752;48.870;9.082;2023-09-30T12:20:52;9.75;;;5.32;;
76053;SDS011;64752;48.870;9.082;2023-09-30T12:23:17;10.32;;;5.80;;
76053;SDS011;64752;48.870;9.082;2023-09-30T12:28:09;11.35;;;5.90;;
76053;SDS011;64752;48.870;9.082;2023-09-30T12:30:34;11.40;;;5.40;;
76053;SDS011;64752;48.870;9.082;2023-09-30T12:33:00;11.75;;;6.20;;
76053;SDS011;64752;48.870;9.082;2023-09-30T12:35:25;11.70;;;5.20;;
76053;SDS011;64752;48.870;9.082;2023-09-30T12:37:51;7.18;;;4.25;;
76053;SDS011;64752;48.870;9.082;2023-09-30T12:40:16;10.87;;;5.23;;
76053;SDS011;64752;48.870;9.082;2023-09-30T12:42:43;11.90;;;5.20;;
76053;SDS011;64752;48.870;9.082;2023-09-30T12:45:09;11.80;;;5.95;;
76053;SDS011;64752;48.870;9.082;2023-09-30T12:47:35;11.07;;;5.85;;
76053;SDS011;64752;48.870;9.082;2023-09-30T12:50:00;9.67;;;5.00;;
76053;SDS011;64752;48.870;9.082;2023-09-30T12:52:26;11.43;;;5.10;;
76053;SDS011;64752;48.870;9.082;2023-09-30T12:54:51;11.20;;;4.90;;
76053;SDS011;64752;48.870;9.082;2023-09-30T12:57:17;11.10;;;5.23;;
76053;SDS011;64752;48.870;9.082;2023-09-30T12:59:43;14.07;;;5.28;;
76053;SDS011;64752;48.870;9.082;2023-09-30T13:02:11;10.13;;;5.15;;
76053;SDS011;64752;48.870;9.082;2023-09-30T13:04:37;10.10;;;4.80;;
76053;SDS011;64752;48.870;9.082;2023-09-30T13:07:07;9.98;;;5.20;;
76053;SDS011;64752;48.870;9.082;2023-09-30T13:09:33;8.73;;;4.63;;
76053;SDS011;64752;48.870;9.082;2023-09-30T13:11:58;9.67;;;4.93;;
76053;SDS011;64752;48.870;9.082;2023-09-30T13:14:25;10.90;;;5.15;;
76053;SDS011;64752;48.870;9.082;2023-09-30T13:16:53;8.65;;;4.85;;
76053;SDS011;64752;48.870;9.082;2023-09-30T13:19:18;9.60;;;5.30;;
76053;SDS011;64752;48.870;9.082;2023-09-30T13:21:46;11.10;;;4.90;;
76053;SDS011;64752;48.870;9.082;2023-09-30T13:24:12;10.93;;;5.18;;
76053;SDS011;64752;48.870;9.082;2023-09-30T13:26:37;10.60;;;5.20;;
76053;SDS011;64752;48.870;9.082;2023-09-30T13:29:03;8.47;;;4.57;;
76053;SDS011;64752;48.870;9.082;2023-09-30T13:31:30;9.43;;;4.90;;
76053;SDS011;64752;48.870;9.082;2023-09-30T13:33:56;9.88;;;5.22;;
76053;SDS011;64752;48.870;9.082;2023-09-30T13:36:21;8.80;;;4.67;;
76053;SDS011;64752;48.870;9.082;2023-09-30T13:38:47;13.13;;;4.73;;
76053;SDS011;64752;48.870;9.082;2023-09-30T13:41:14;9.05;;;4.80;;
76053;SDS011;64752;48.870;9.082;2023-09-30T13:43:40;8.63;;;4.97;;
76053;SDS011;64752;48.870;9.082;2023-09-30T13:46:06;10.43;;;4.72;;
76053;SDS011;64752;48.870;9.082;2023-09-30T13:48:32;11.33;;;5.20;;
76053;SDS011;64752;48.870;9.082;2023-09-30T13:51:08;9.68;;;5.07;;
76053;SDS011;64752;48.870;9.082;2023-09-30T13:56:01;11.23;;;5.23;;
76053;SDS011;64752;48.870;9.082;2023-09-30T13:58:28;10.75;;;5.30;;
76053;SDS011;64752;48.870;9.082;2023-09-30T14:00:53;9.00;;;4.40;;
76053;SDS011;64752;48.870;9.082;2023-09-30T14:03:19;9.43;;;5.30;;
76053;SDS011;64752;48.870;9.082;2023-09-30T14:05:45;10.27;;;5.28;;
76053;SDS011;64752;48.870;9.082;2023-09-30T14:10:37;9.82;;;4.95;;
76053;SDS011;64752;48.870;9.082;2023-09-30T14:13:02;9.57;;;5.17;;
76053;SDS011;64752;48.870;9.082;2023-09-30T14:15:28;10.82;;;4.88;;
76053;SDS011;64752;48.870;9.082;2023-09-30T14:17:55;10.77;;;5.10;;
76053;SDS011;64752;48.870;9.082;2023-09-30T14:20:20;9.43;;;5.23;;
76053;SDS011;64752;48.870;9.082;2023-09-30T14:22:46;8.48;;;4.70;;
76053;SDS011;64752;48.870;9.082;2023-09-30T14:25:12;8.93;;;4.97;;
76053;SDS011;64752;48.870;9.082;2023-09-30T14:27:38;10.50;;;4.87;;
76053;SDS011;64752;48.870;9.082;2023-09-30T14:30:05;9.60;;;5.28;;
76053;SDS011;64752;48.870;9.082;2023-09-30T14:34:57;9.93;;;4.70;;
76053;SDS011;64752;48.870;9.082;2023-09-30T14:37:23;10.65;;;5.15;;
76053;SDS011;64752;48.870;9.082;2023-09-30T14:39:48;9.83;;;4.93;;
76053;SDS011;64752;48.870;9.082;2023-09-30T14:42:14;11.13;;;5.27;;
76053;SDS011;64752;48.870;9.082;2023-09-30T14:44:40;10.60;;;5.40;;
76053;SDS011;64752;48.870;9.082;2023-09-30T14:47:05;10.07;;;5.43;;
76053;SDS011;64752;48.870;9.082;2023-09-30T14:49:31;10.10;;;5.30;;
76053;SDS011;64752;48.870;9.082;2023-09-30T14:51:57;12.73;;;6.15;;
76053;SDS011;64752;48.870;9.082;2023-09-30T14:54:23;11.17;;;5.90;;
76053;SDS011;64752;48.870;9.082;2023-09-30T14:56:48;12.00;;;5.00;;
76053;SDS011;64752;48.870;9.082;2023-09-30T14:59:13;13.83;;;5.30;;
76053;SDS011;64752;48.870;9.082;2023-09-30T15:01:39;12.53;;;5.27;;
76053;SDS011;64752;48.870;9.082;2023-09-30T15:04:04;13.30;;;5.77;;
76053;SDS011;64752;48.870;9.082;2023-09-30T15:06:32;10.45;;;5.13;;
76053;SDS011;64752;48.870;9.082;2023-09-30T15:09:02;10.85;;;5.05;;
76053;SDS011;64752;48.870;9.082;2023-09-30T15:11:29;10.57;;;5.05;;
76053;SDS011;64752;48.870;9.082;2023-09-30T15:13:55;10.77;;;5.30;;
76053;SDS011;64752;48.870;9.082;2023-09-30T15:16:21;11.82;;;5.15;;
76053;SDS011;64752;48.870;9.082;2023-09-30T15:18:48;11.13;;;5.38;;
76053;SDS011;64752;48.870;9.082;2023-09-30T15:21:14;9.20;;;5.00;;
76053;SDS011;64752;48.870;9.082;2023-09-30T15:26:06;8.07;;;4.57;;
76053;SDS011;64752;48.870;9.082;2023-09-30T15:28:31;12.53;;;5.43;;
76053;SDS011;64752;48.870;9.082;2023-09-30T15:30:57;14.90;;;5.70;;
76053;SDS011;64752;48.870;9.082;2023-09-30T15:33:23;13.73;;;5.80;;
76053;SDS011;64752;48.870;9.082;2023-09-30T15:35:49;11.13;;;5.30;;
76053;SDS011;64752;48.870;9.082;2023-09-30T15:38:14;9.40;;;4.87;;
76053;SDS011;64752;48.870;9.082;2023-09-30T15:40:58;12.87;;;5.73;;
76053;SDS011;64752;48.870;9.082;2023-09-30T15:43:23;10.40;;;5.28;;